sensor_id;sensor_type;location;lat;lon;timestamp;pressure;altitude;pressure_sealevel;temperature;humidity
49342;BME280;35210;41.606;-87.602;2023-02-28T00:01:27;97160.84;;;11.84;91.22
49342;BME280;35210;41.606;-87.602;2023-02-28T00:03:57;97162.97;;;11.66;91.39
49342;BME280;35210;41.606;-87.602;2023-02-28T00:06:28;97169.78;;;11.61;91.09
49342;BME280;35210;41.606;-87.602;2023-02-28T00:08:56;97176.09;;;11.37;91.48
49342;BME280;35210;41.606;-87.602;2023-02-28T00:11:24;97199.59;;;11.32;91.98
49342;BME280;35210;41.606;-87.602;2023-02-28T00:13:52;97217.16;;;11.25;91.62
49342;BME280;35210;41.606;-87.602;2023-02-28T00:16:21;97238.00;;;11.19;91.44
49342;BME280;35210;41.606;-87.602;2023-02-28T00:18:50;97250.44;;;11.11;90.84
49342;BME280;35210;41.606;-87.602;2023-02-28T00:21:20;97258.25;;;11.04;90.78
49342;BME280;35210;41.606;-87.602;2023-02-28T00:23:48;97267.59;;;10.84;89.32
49342;BME280;35210;41.606;-87.602;2023-02-28T00:26:16;97289.25;;;10.71;89.12
49342;BME280;35210;41.606;-87.602;2023-02-28T00:28:48;97330.16;;;10.75;88.78
49342;BME280;35210;41.606;-87.602;2023-02-28T00:31:16;97327.66;;;10.35;85.96
49342;BME280;35210;41.606;-87.602;2023-02-28T00:33:45;97337.22;;;10.28;86.70
49342;BME280;35210;41.606;-87.602;2023-02-28T00:36:13;97357.16;;;10.14;86.41
49342;BME280;35210;41.606;-87.602;2023-02-28T00:38:44;97367.53;;;10.07;86.37
49342;BME280;35210;41.606;-87.602;2023-02-28T00:41:12;97366.03;;;9.97;87.44
49342;BME280;35210;41.606;-87.602;2023-02-28T00:43:42;97391.38;;;9.49;86.76
49342;BME280;35210;41.606;-87.602;2023-02-28T00:46:11;97396.97;;;9.46;86.84
49342;BME280;35210;41.606;-87.602;2023-02-28T00:48:40;97401.69;;;9.34;87.31
49342;BME280;35210;41.606;-87.602;2023-02-28T00:51:08;97417.66;;;9.33;88.03
49342;BME280;35210;41.606;-87.602;2023-02-28T00:53:36;97416.63;;;9.26;88.04
49342;BME280;35210;41.606;-87.602;2023-02-28T00:56:07;97430.50;;;9.36;87.73
49342;BME280;35210;41.606;-87.602;2023-02-28T00:58:35;97438.22;;;9.29;87.51
49342;BME280;35210;41.606;-87.602;2023-02-28T01:01:04;97452.84;;;9.23;87.41
49342;BME280;35210;41.606;-87.602;2023-02-28T01:03:33;97454.19;;;9.28;86.50
49342;BME280;35210;41.606;-87.602;2023-02-28T01:06:02;97477.00;;;9.19;87.32
49342;BME280;35210;41.606;-87.602;2023-02-28T01:08:30;97494.63;;;9.18;87.38
49342;BME280;35210;41.606;-87.602;2023-02-28T01:11:09;97491.56;;;9.31;87.63
49342;BME280;35210;41.606;-87.602;2023-02-28T01:13:39;97495.69;;;9.34;86.99
49342;BME280;35210;41.606;-87.602;2023-02-28T01:16:11;97503.91;;;9.05;86.47
49342;BME280;35210;41.606;-87.602;2023-02-28T01:18:39;97495.03;;;9.06;86.45
49342;BME280;35210;41.606;-87.602;2023-02-28T01:21:10;97553.41;;;9.01;86.37
49342;BME280;35210;41.606;-87.602;2023-02-28T01:23:39;97537.94;;;8.98;86.00
49342;BME280;35210;41.606;-87.602;2023-02-28T01:26:12;97557.66;;;8.94;86.85
49342;BME280;35210;41.606;-87.602;2023-02-28T01:28:42;97559.94;;;8.89;86.63
49342;BME280;35210;41.606;-87.602;2023-02-28T01:31:12;97571.91;;;8.83;86.76
49342;BME280;35210;41.606;-87.602;2023-02-28T01:33:41;97581.97;;;8.88;85.58
49342;BME280;35210;41.606;-87.602;2023-02-28T01:36:13;97581.72;;;8.99;85.11
49342;BME280;35210;41.606;-87.602;2023-02-28T01:38:43;97581.91;;;8.62;85.57
49342;BME280;35210;41.606;-87.602;2023-02-28T01:41:16;97588.38;;;8.68;85.80
49342;BME280;35210;41.606;-87.602;2023-02-28T01:44:00;97586.28;;;8.71;85.78
49342;BME280;35210;41.606;-87.602;2023-02-28T01:46:31;97596.28;;;8.68;84.85
49342;BME280;35210;41.606;-87.602;2023-02-28T01:49:04;97596.66;;;8.73;84.08
49342;BME280;35210;41.606;-87.602;2023-02-28T01:51:38;97605.81;;;8.69;85.23
49342;BME280;35210;41.606;-87.602;2023-02-28T01:54:15;97618.75;;;8.62;84.41
49342;BME280;35210;41.606;-87.602;2023-02-28T01:56:49;97628.06;;;8.56;84.97
49342;BME280;35210;41.606;-87.602;2023-02-28T01:59:23;97626.13;;;8.31;84.29
49342;BME280;35210;41.606;-87.602;2023-02-28T02:01:54;97650.00;;;8.47;84.09
49342;BME280;35210;41.606;-87.602;2023-02-28T02:04:24;97648.59;;;8.53;84.52
49342;BME280;35210;41.606;-87.602;2023-02-28T02:06:55;97664.38;;;8.53;84.07
49342;BME280;35210;41.606;-87.602;2023-02-28T02:09:23;97658.28;;;8.52;83.88
49342;BME280;35210;41.606;-87.602;2023-02-28T02:11:56;97663.06;;;8.39;84.68
49342;BME280;35210;41.606;-87.602;2023-02-28T02:14:51;97670.81;;;8.31;85.83
49342;BME280;35210;41.606;-87.602;2023-02-28T02:17:30;97682.59;;;8.27;84.86
49342;BME280;35210;41.606;-87.602;2023-02-28T02:20:22;97688.97;;;8.07;85.29
49342;BME280;35210;41.606;-87.602;2023-02-28T02:23:28;97705.19;;;8.20;85.72
49342;BME280;35210;41.606;-87.602;2023-02-28T02:26:12;97737.00;;;7.89;87.09
49342;BME280;35210;41.606;-87.602;2023-02-28T02:29:17;97741.84;;;7.94;86.54
49342;BME280;35210;41.606;-87.602;2023-02-28T02:35:14;97753.22;;;7.75;85.84
49342;BME280;35210;41.606;-87.602;2023-02-28T02:37:48;97777.28;;;7.71;85.58
49342;BME280;35210;41.606;-87.602;2023-02-28T02:40:21;97786.00;;;7.81;84.92
49342;BME280;35210;41.606;-87.602;2023-02-28T02:42:54;97792.34;;;7.78;84.55
49342;BME280;35210;41.606;-87.602;2023-02-28T02:45:27;97798.03;;;7.74;84.42
49342;BME280;35210;41.606;-87.602;2023-02-28T02:48:05;97793.34;;;7.58;85.12
49342;BME280;35210;41.606;-87.602;2023-02-28T02:50:42;97809.66;;;7.71;85.10
49342;BME280;35210;41.606;-87.602;2023-02-28T02:53:26;97814.63;;;7.74;84.38
49342;BME280;35210;41.606;-87.602;2023-02-28T02:55:59;97833.03;;;7.65;84.44
49342;BME280;35210;41.606;-87.602;2023-02-28T02:58:33;97820.44;;;7.68;84.53
49342;BME280;35210;41.606;-87.602;2023-02-28T03:01:11;97838.41;;;7.63;84.76
49342;BME280;35210;41.606;-87.602;2023-02-28T03:03:42;97844.63;;;7.62;83.96
49342;BME280;35210;41.606;-87.602;2023-02-28T03:06:18;97869.94;;;7.63;84.25
49342;BME280;35210;41.606;-87.602;2023-02-28T03:08:47;97877.66;;;7.55;84.15
49342;BME280;35210;41.606;-87.602;2023-02-28T03:11:15;97882.66;;;7.39;84.85
49342;BME280;35210;41.606;-87.602;2023-02-28T03:14:01;97894.94;;;7.29;84.45
49342;BME280;35210;41.606;-87.602;2023-02-28T03:16:51;97909.16;;;7.26;83.88
49342;BME280;35210;41.606;-87.602;2023-02-28T03:19:37;97913.38;;;7.08;84.55
49342;BME280;35210;41.606;-87.602;2023-02-28T03:22:24;97933.97;;;7.12;84.05
49342;BME280;35210;41.606;-87.602;2023-02-28T03:25:03;97936.78;;;7.20;83.56
49342;BME280;35210;41.606;-87.602;2023-02-28T03:27:48;97938.53;;;7.10;82.90
49342;BME280;35210;41.606;-87.602;2023-02-28T03:30:26;97932.59;;;7.08;81.91
49342;BME280;35210;41.606;-87.602;2023-02-28T03:32:58;97943.88;;;6.99;81.59
49342;BME280;35210;41.606;-87.602;2023-02-28T03:35:32;97957.00;;;6.99;82.29
49342;BME280;35210;41.606;-87.602;2023-02-28T03:38:11;97957.16;;;7.07;83.16
49342;BME280;35210;41.606;-87.602;2023-02-28T03:40:51;97969.38;;;7.18;82.61
49342;BME280;35210;41.606;-87.602;2023-02-28T03:43:26;97962.19;;;7.20;81.56
49342;BME280;35210;41.606;-87.602;2023-02-28T03:45:56;97978.78;;;7.20;80.60
49342;BME280;35210;41.606;-87.602;2023-02-28T03:48:32;97973.94;;;7.16;79.66
49342;BME280;35210;41.606;-87.602;2023-02-28T03:51:04;97969.09;;;7.21;79.15
49342;BME280;35210;41.606;-87.602;2023-02-28T03:53:45;97973.13;;;7.25;79.63
49342;BME280;35210;41.606;-87.602;2023-02-28T03:56:18;97988.88;;;7.25;80.19
49342;BME280;35210;41.606;-87.602;2023-02-28T03:58:51;98008.50;;;7.21;80.19
49342;BME280;35210;41.606;-87.602;2023-02-28T04:01:26;97989.97;;;7.22;78.56
49342;BME280;35210;41.606;-87.602;2023-02-28T04:03:56;98000.31;;;7.14;78.71
49342;BME280;35210;41.606;-87.602;2023-02-28T04:06:24;97997.56;;;7.16;79.20
49342;BME280;35210;41.606;-87.602;2023-02-28T04:08:57;98011.97;;;7.01;80.00
49342;BME280;35210;41.606;-87.602;2023-02-28T04:11:32;98023.22;;;7.12;80.13
49342;BME280;35210;41.606;-87.602;2023-02-28T04:14:02;98021.31;;;7.14;80.06
49342;BME280;35210;41.606;-87.602;2023-02-28T04:16:31;98046.41;;;7.07;80.75
49342;BME280;35210;41.606;-87.602;2023-02-28T04:18:59;98054.53;;;7.04;80.81
49342;BME280;35210;41.606;-87.602;2023-02-28T04:21:31;98074.06;;;6.90;79.80
49342;BME280;35210;41.606;-87.602;2023-02-28T04:24:01;98069.41;;;6.94;80.85
49342;BME280;35210;41.606;-87.602;2023-02-28T04:26:32;98078.75;;;6.87;81.17
49342;BME280;35210;41.606;-87.602;2023-02-28T04:29:02;98087.63;;;6.75;81.76
49342;BME280;35210;41.606;-87.602;2023-02-28T04:31:35;98098.13;;;6.75;81.01
49342;BME280;35210;41.606;-87.602;2023-02-28T04:34:04;98101.19;;;6.80;80.54
49342;BME280;35210;41.606;-87.602;2023-02-28T04:36:33;98106.13;;;6.73;80.92
49342;BME280;35210;41.606;-87.602;2023-02-28T04:39:02;98108.88;;;6.72;81.38
49342;BME280;35210;41.606;-87.602;2023-02-28T04:41:32;98110.72;;;6.81;81.52
49342;BME280;35210;41.606;-87.602;2023-02-28T04:44:01;98121.34;;;6.79;81.27
49342;BME280;35210;41.606;-87.602;2023-02-28T04:46:30;98132.69;;;6.80;82.44
49342;BME280;35210;41.606;-87.602;2023-02-28T04:48:58;98125.47;;;6.93;81.54
49342;BME280;35210;41.606;-87.602;2023-02-28T04:51:27;98136.25;;;6.79;81.08
49342;BME280;35210;41.606;-87.602;2023-02-28T04:53:56;98141.00;;;6.85;79.73
49342;BME280;35210;41.606;-87.602;2023-02-28T04:56:27;98138.84;;;6.90;79.40
49342;BME280;35210;41.606;-87.602;2023-02-28T04:58:57;98145.63;;;6.92;78.61
49342;BME280;35210;41.606;-87.602;2023-02-28T05:01:28;98136.50;;;6.76;79.13
49342;BME280;35210;41.606;-87.602;2023-02-28T05:03:58;98159.75;;;6.80;79.53
49342;BME280;35210;41.606;-87.602;2023-02-28T05:06:29;98155.34;;;6.81;80.23
49342;BME280;35210;41.606;-87.602;2023-02-28T05:08:58;98180.41;;;6.74;80.67
49342;BME280;35210;41.606;-87.602;2023-02-28T05:11:30;98174.03;;;6.67;80.30
49342;BME280;35210;41.606;-87.602;2023-02-28T05:14:01;98190.75;;;6.54;80.82
49342;BME280;35210;41.606;-87.602;2023-02-28T05:16:30;98202.66;;;6.58;80.49
49342;BME280;35210;41.606;-87.602;2023-02-28T05:18:59;98207.91;;;6.47;80.12
49342;BME280;35210;41.606;-87.602;2023-02-28T05:21:29;98202.22;;;6.42;80.48
49342;BME280;35210;41.606;-87.602;2023-02-28T05:23:59;98209.13;;;6.43;80.46
49342;BME280;35210;41.606;-87.602;2023-02-28T05:26:29;98205.66;;;6.54;80.33
49342;BME280;35210;41.606;-87.602;2023-02-28T05:28:58;98216.13;;;6.54;80.41
49342;BME280;35210;41.606;-87.602;2023-02-28T05:31:26;98222.94;;;6.45;80.16
49342;BME280;35210;41.606;-87.602;2023-02-28T05:33:54;98223.44;;;6.39;80.63
49342;BME280;35210;41.606;-87.602;2023-02-28T05:36:23;98228.31;;;6.44;80.41
49342;BME280;35210;41.606;-87.602;2023-02-28T05:38:52;98227.34;;;6.56;79.61
49342;BME280;35210;41.606;-87.602;2023-02-28T05:41:21;98232.59;;;6.56;79.34
49342;BME280;35210;41.606;-87.602;2023-02-28T05:43:50;98239.75;;;6.54;78.61
49342;BME280;35210;41.606;-87.602;2023-02-28T05:46:18;98237.13;;;6.54;77.94
49342;BME280;35210;41.606;-87.602;2023-02-28T05:48:48;98256.91;;;6.58;78.14
49342;BME280;35210;41.606;-87.602;2023-02-28T05:51:16;98264.66;;;6.48;77.95
49342;BME280;35210;41.606;-87.602;2023-02-28T05:53:44;98266.69;;;6.56;78.44
49342;BME280;35210;41.606;-87.602;2023-02-28T05:56:14;98272.88;;;6.44;78.43
49342;BME280;35210;41.606;-87.602;2023-02-28T05:58:42;98278.47;;;6.50;79.12
49342;BME280;35210;41.606;-87.602;2023-02-28T06:01:24;98287.28;;;6.61;79.14
49342;BME280;35210;41.606;-87.602;2023-02-28T06:03:52;98297.31;;;6.55;78.38
49342;BME280;35210;41.606;-87.602;2023-02-28T06:06:20;98299.56;;;6.60;78.28
49342;BME280;35210;41.606;-87.602;2023-02-28T06:08:49;98305.78;;;6.59;77.71
49342;BME280;35210;41.606;-87.602;2023-02-28T06:11:17;98310.03;;;6.71;78.29
49342;BME280;35210;41.606;-87.602;2023-02-28T06:13:46;98315.16;;;6.73;78.27
49342;BME280;35210;41.606;-87.602;2023-02-28T06:16:14;98309.41;;;6.79;78.40
49342;BME280;35210;41.606;-87.602;2023-02-28T06:18:43;98319.91;;;6.79;78.38
49342;BME280;35210;41.606;-87.602;2023-02-28T06:21:12;98318.00;;;6.81;78.68
49342;BME280;35210;41.606;-87.602;2023-02-28T06:23:40;98332.91;;;6.80;78.74
49342;BME280;35210;41.606;-87.602;2023-02-28T06:26:08;98345.69;;;6.74;79.42
49342;BME280;35210;41.606;-87.602;2023-02-28T06:28:37;98342.34;;;6.83;79.90
49342;BME280;35210;41.606;-87.602;2023-02-28T06:31:08;98344.38;;;6.79;79.80
49342;BME280;35210;41.606;-87.602;2023-02-28T06:33:38;98362.72;;;6.79;79.90
49342;BME280;35210;41.606;-87.602;2023-02-28T06:36:09;98366.19;;;6.80;80.01
49342;BME280;35210;41.606;-87.602;2023-02-28T06:38:37;98366.66;;;6.74;80.74
49342;BME280;35210;41.606;-87.602;2023-02-28T06:41:06;98367.50;;;6.74;80.71
49342;BME280;35210;41.606;-87.602;2023-02-28T06:43:37;98375.72;;;6.81;80.38
49342;BME280;35210;41.606;-87.602;2023-02-28T06:46:07;98380.50;;;6.87;80.38
49342;BME280;35210;41.606;-87.602;2023-02-28T06:48:36;98380.50;;;6.87;80.91
49342;BME280;35210;41.606;-87.602;2023-02-28T06:51:06;98385.97;;;6.84;80.95
49342;BME280;35210;41.606;-87.602;2023-02-28T06:53:36;98387.41;;;6.88;80.52
49342;BME280;35210;41.606;-87.602;2023-02-28T06:56:05;98392.31;;;6.92;80.45
49342;BME280;35210;41.606;-87.602;2023-02-28T06:58:35;98398.97;;;6.97;79.80
49342;BME280;35210;41.606;-87.602;2023-02-28T07:01:05;98402.69;;;6.94;80.23
49342;BME280;35210;41.606;-87.602;2023-02-28T07:03:36;98401.50;;;6.87;80.52
49342;BME280;35210;41.606;-87.602;2023-02-28T07:06:06;98406.97;;;6.84;80.67
49342;BME280;35210;41.606;-87.602;2023-02-28T07:08:36;98411.03;;;6.77;81.18
49342;BME280;35210;41.606;-87.602;2023-02-28T07:11:04;98431.91;;;6.78;81.43
49342;BME280;35210;41.606;-87.602;2023-02-28T07:13:34;98438.09;;;6.88;80.77
49342;BME280;35210;41.606;-87.602;2023-02-28T07:16:04;98432.75;;;6.90;80.77
49342;BME280;35210;41.606;-87.602;2023-02-28T07:18:33;98436.09;;;6.92;80.36
49342;BME280;35210;41.606;-87.602;2023-02-28T07:21:03;98448.00;;;6.85;80.47
49342;BME280;35210;41.606;-87.602;2023-02-28T07:23:32;98450.63;;;6.85;80.55
49342;BME280;35210;41.606;-87.602;2023-02-28T07:26:05;98454.22;;;6.84;80.87
49342;BME280;35210;41.606;-87.602;2023-02-28T07:28:33;98461.13;;;6.85;81.27
49342;BME280;35210;41.606;-87.602;2023-02-28T07:31:05;98463.50;;;6.88;81.03
49342;BME280;35210;41.606;-87.602;2023-02-28T07:33:34;98462.81;;;6.86;81.19
49342;BME280;35210;41.606;-87.602;2023-02-28T07:36:03;98465.91;;;6.91;81.35
49342;BME280;35210;41.606;-87.602;2023-02-28T07:38:34;98480.81;;;6.90;81.05
49342;BME280;35210;41.606;-87.602;2023-02-28T07:41:04;98487.84;;;6.90;81.70
49342;BME280;35210;41.606;-87.602;2023-02-28T07:43:34;98487.13;;;6.88;81.93
49342;BME280;35210;41.606;-87.602;2023-02-28T07:46:04;98499.66;;;6.96;81.41
49342;BME280;35210;41.606;-87.602;2023-02-28T07:48:34;98504.31;;;6.92;81.79
49342;BME280;35210;41.606;-87.602;2023-02-28T07:51:02;98497.75;;;6.86;82.04
49342;BME280;35210;41.606;-87.602;2023-02-28T07:53:33;98492.84;;;6.82;82.37
49342;BME280;35210;41.606;-87.602;2023-02-28T07:56:04;98499.53;;;6.86;82.59
49342;BME280;35210;41.606;-87.602;2023-02-28T07:58:32;98501.31;;;6.85;82.43
49342;BME280;35210;41.606;-87.602;2023-02-28T08:01:05;98509.81;;;6.89;82.74
49342;BME280;35210;41.606;-87.602;2023-02-28T08:03:34;98509.31;;;6.95;82.81
49342;BME280;35210;41.606;-87.602;2023-02-28T08:06:03;98506.00;;;7.04;82.56
49342;BME280;35210;41.606;-87.602;2023-02-28T08:08:34;98517.44;;;7.03;82.45
49342;BME280;35210;41.606;-87.602;2023-02-28T08:11:04;98524.25;;;7.06;82.00
49342;BME280;35210;41.606;-87.602;2023-02-28T08:13:34;98524.38;;;7.04;82.30
49342;BME280;35210;41.606;-87.602;2023-02-28T08:16:02;98521.50;;;6.96;81.71
49342;BME280;35210;41.606;-87.602;2023-02-28T08:18:31;98514.47;;;6.97;81.67
49342;BME280;35210;41.606;-87.602;2023-02-28T08:21:04;98511.38;;;7.03;81.26
49342;BME280;35210;41.606;-87.602;2023-02-28T08:23:33;98515.41;;;6.96;81.15
49342;BME280;35210;41.606;-87.602;2023-02-28T08:26:03;98520.78;;;6.94;82.12
49342;BME280;35210;41.606;-87.602;2023-02-28T08:28:33;98525.31;;;6.92;81.87
49342;BME280;35210;41.606;-87.602;2023-02-28T08:31:01;98529.50;;;6.95;81.55
49342;BME280;35210;41.606;-87.602;2023-02-28T08:33:34;98541.88;;;6.81;82.05
49342;BME280;35210;41.606;-87.602;2023-02-28T08:36:02;98541.28;;;6.89;82.19
49342;BME280;35210;41.606;-87.602;2023-02-28T08:38:31;98556.19;;;6.88;81.77
49342;BME280;35210;41.606;-87.602;2023-02-28T08:41:00;98557.28;;;6.86;81.85
49342;BME280;35210;41.606;-87.602;2023-02-28T08:43:30;98562.59;;;6.73;82.70
49342;BME280;35210;41.606;-87.602;2023-02-28T08:45:59;98567.72;;;6.75;83.15
49342;BME280;35210;41.606;-87.602;2023-02-28T08:48:28;98567.06;;;6.95;82.46
49342;BME280;35210;41.606;-87.602;2023-02-28T08:50:57;98564.69;;;7.03;81.68
49342;BME280;35210;41.606;-87.602;2023-02-28T08:53:25;98576.81;;;6.82;82.92
49342;BME280;35210;41.606;-87.602;2023-02-28T08:55:58;98582.81;;;6.95;82.16
49342;BME280;35210;41.606;-87.602;2023-02-28T08:58:27;98585.44;;;6.95;82.65
49342;BME280;35210;41.606;-87.602;2023-02-28T09:00:57;98580.69;;;7.00;82.13
49342;BME280;35210;41.606;-87.602;2023-02-28T09:03:25;98584.50;;;6.96;81.75
49342;BME280;35210;41.606;-87.602;2023-02-28T09:05:58;98596.13;;;6.81;82.54
49342;BME280;35210;41.606;-87.602;2023-02-28T09:08:29;98600.66;;;6.79;83.09
49342;BME280;35210;41.606;-87.602;2023-02-28T09:10:58;98604.72;;;6.83;83.32
49342;BME280;35210;41.606;-87.602;2023-02-28T09:13:27;98610.00;;;6.94;82.73
49342;BME280;35210;41.606;-87.602;2023-02-28T09:15:59;98623.25;;;6.92;82.49
49342;BME280;35210;41.606;-87.602;2023-02-28T09:18:28;98618.88;;;7.04;82.31
49342;BME280;35210;41.606;-87.602;2023-02-28T09:20:57;98621.25;;;7.07;83.20
49342;BME280;35210;41.606;-87.602;2023-02-28T09:23:26;98628.69;;;7.13;81.67
49342;BME280;35210;41.606;-87.602;2023-02-28T09:25:55;98634.38;;;7.07;82.11
49342;BME280;35210;41.606;-87.602;2023-02-28T09:28:23;98634.88;;;7.12;82.68
49342;BME280;35210;41.606;-87.602;2023-02-28T09:30:53;98640.50;;;7.19;82.04
49342;BME280;35210;41.606;-87.602;2023-02-28T09:33:25;98649.22;;;7.19;82.45
49342;BME280;35210;41.606;-87.602;2023-02-28T09:35:58;98659.59;;;7.21;82.91
49342;BME280;35210;41.606;-87.602;2023-02-28T09:38:27;98668.31;;;7.21;82.58
49342;BME280;35210;41.606;-87.602;2023-02-28T09:40:57;98678.25;;;7.29;81.95
49342;BME280;35210;41.606;-87.602;2023-02-28T09:43:27;98665.97;;;7.41;81.17
49342;BME280;35210;41.606;-87.602;2023-02-28T09:46:00;98677.28;;;7.30;81.74
49342;BME280;35210;41.606;-87.602;2023-02-28T09:48:36;98674.78;;;7.29;82.21
49342;BME280;35210;41.606;-87.602;2023-02-28T09:51:21;98681.47;;;7.33;81.53
49342;BME280;35210;41.606;-87.602;2023-02-28T09:53:54;98689.84;;;7.38;81.74
49342;BME280;35210;41.606;-87.602;2023-02-28T09:56:26;98682.09;;;7.36;81.61
49342;BME280;35210;41.606;-87.602;2023-02-28T09:58:59;98684.59;;;7.38;81.90
49342;BME280;35210;41.606;-87.602;2023-02-28T10:01:34;98695.94;;;7.38;81.87
49342;BME280;35210;41.606;-87.602;2023-02-28T10:04:14;98703.09;;;7.36;81.51
49342;BME280;35210;41.606;-87.602;2023-02-28T10:06:48;98705.25;;;7.42;81.03
49342;BME280;35210;41.606;-87.602;2023-02-28T10:09:19;98711.47;;;7.41;81.54
49342;BME280;35210;41.606;-87.602;2023-02-28T10:11:51;98726.63;;;7.38;81.37
49342;BME280;35210;41.606;-87.602;2023-02-28T10:14:22;98736.16;;;7.39;81.61
49342;BME280;35210;41.606;-87.602;2023-02-28T10:16:54;98740.59;;;7.38;82.17
49342;BME280;35210;41.606;-87.602;2023-02-28T10:19:30;98743.94;;;7.51;81.17
49342;BME280;35210;41.606;-87.602;2023-02-28T10:22:05;98743.56;;;7.45;81.57
49342;BME280;35210;41.606;-87.602;2023-02-28T10:24:40;98741.88;;;7.44;81.71
49342;BME280;35210;41.606;-87.602;2023-02-28T10:27:15;98747.41;;;7.52;81.62
49342;BME280;35210;41.606;-87.602;2023-02-28T10:29:45;98752.88;;;7.49;81.81
49342;BME280;35210;41.606;-87.602;2023-02-28T10:32:17;98753.25;;;7.55;81.64
49342;BME280;35210;41.606;-87.602;2023-02-28T10:34:52;98757.91;;;7.52;81.03
49342;BME280;35210;41.606;-87.602;2023-02-28T10:37:25;98771.50;;;7.46;81.23
49342;BME280;35210;41.606;-87.602;2023-02-28T10:39:53;98773.41;;;7.44;81.30
49342;BME280;35210;41.606;-87.602;2023-02-28T10:42:26;98783.91;;;7.44;81.51
49342;BME280;35210;41.606;-87.602;2023-02-28T10:45:16;98780.00;;;7.49;80.35
49342;BME280;35210;41.606;-87.602;2023-02-28T10:47:53;98794.91;;;7.38;80.98
49342;BME280;35210;41.606;-87.602;2023-02-28T10:50:50;98797.47;;;7.27;82.21
49342;BME280;35210;41.606;-87.602;2023-02-28T10:53:31;98800.22;;;7.25;82.77
49342;BME280;35210;41.606;-87.602;2023-02-28T10:56:02;98797.94;;;7.20;82.06
49342;BME280;35210;41.606;-87.602;2023-02-28T10:58:40;98799.22;;;7.15;83.03
49342;BME280;35210;41.606;-87.602;2023-02-28T11:01:14;98803.22;;;7.08;83.55
49342;BME280;35210;41.606;-87.602;2023-02-28T11:03:43;98794.31;;;7.10;83.23
49342;BME280;35210;41.606;-87.602;2023-02-28T11:06:17;98800.78;;;7.17;83.39
49342;BME280;35210;41.606;-87.602;2023-02-28T11:08:48;98810.34;;;7.18;83.23
49342;BME280;35210;41.606;-87.602;2023-02-28T11:11:17;98824.19;;;7.20;82.86
49342;BME280;35210;41.606;-87.602;2023-02-28T11:13:47;98831.34;;;7.18;83.06
49342;BME280;35210;41.606;-87.602;2023-02-28T11:16:18;98827.75;;;7.19;81.97
49342;BME280;35210;41.606;-87.602;2023-02-28T11:18:49;98831.13;;;7.21;82.90
49342;BME280;35210;41.606;-87.602;2023-02-28T11:21:26;98841.56;;;7.10;82.72
49342;BME280;35210;41.606;-87.602;2023-02-28T11:24:01;98838.94;;;7.10;83.02
49342;BME280;35210;41.606;-87.602;2023-02-28T11:26:39;98844.81;;;7.14;83.02
49342;BME280;35210;41.606;-87.602;2023-02-28T11:29:19;98843.97;;;7.13;83.07
49342;BME280;35210;41.606;-87.602;2023-02-28T11:32:11;98843.75;;;7.16;83.60
49342;BME280;35210;41.606;-87.602;2023-02-28T11:34:41;98843.28;;;7.22;83.08
49342;BME280;35210;41.606;-87.602;2023-02-28T11:37:16;98844.75;;;7.27;82.08
49342;BME280;35210;41.606;-87.602;2023-02-28T11:39:46;98846.66;;;7.24;82.26
49342;BME280;35210;41.606;-87.602;2023-02-28T11:42:35;98853.91;;;7.21;82.46
49342;BME280;35210;41.606;-87.602;2023-02-28T11:45:29;98858.72;;;7.27;82.49
49342;BME280;35210;41.606;-87.602;2023-02-28T11:48:12;98871.16;;;7.12;82.70
49342;BME280;35210;41.606;-87.602;2023-02-28T11:50:50;98881.22;;;7.18;82.62
49342;BME280;35210;41.606;-87.602;2023-02-28T11:53:34;98883.84;;;7.18;82.36
49342;BME280;35210;41.606;-87.602;2023-02-28T11:56:10;98888.16;;;7.19;81.92
49342;BME280;35210;41.606;-87.602;2023-02-28T11:58:52;98898.88;;;7.16;82.33
49342;BME280;35210;41.606;-87.602;2023-02-28T12:01:32;98897.19;;;7.15;82.64
49342;BME280;35210;41.606;-87.602;2023-02-28T12:04:12;98903.31;;;7.03;82.68
49342;BME280;35210;41.606;-87.602;2023-02-28T12:06:51;98910.25;;;7.04;82.63
49342;BME280;35210;41.606;-87.602;2023-02-28T12:09:41;98911.72;;;7.08;82.55
49342;BME280;35210;41.606;-87.602;2023-02-28T12:12:26;98912.44;;;7.10;82.14
49342;BME280;35210;41.606;-87.602;2023-02-28T12:15:21;98923.88;;;7.09;81.96
49342;BME280;35210;41.606;-87.602;2023-02-28T12:17:59;98931.97;;;7.06;81.73
49342;BME280;35210;41.606;-87.602;2023-02-28T12:20:35;98926.94;;;7.03;82.66
49342;BME280;35210;41.606;-87.602;2023-02-28T12:26:09;98941.97;;;7.01;82.37
49342;BME280;35210;41.606;-87.602;2023-02-28T12:28:45;98940.59;;;7.08;82.62
49342;BME280;35210;41.606;-87.602;2023-02-28T12:31:19;98955.91;;;7.14;82.30
49342;BME280;35210;41.606;-87.602;2023-02-28T12:33:52;98961.34;;;7.24;81.32
49342;BME280;35210;41.606;-87.602;2023-02-28T12:36:21;98967.88;;;7.18;81.23
49342;BME280;35210;41.606;-87.602;2023-02-28T12:38:55;98987.19;;;7.17;81.71
49342;BME280;35210;41.606;-87.602;2023-02-28T12:41:34;98982.56;;;7.21;81.73
49342;BME280;35210;41.606;-87.602;2023-02-28T12:44:09;98991.28;;;7.21;81.30
49342;BME280;35210;41.606;-87.602;2023-02-28T12:46:42;99006.53;;;7.16;81.51
49342;BME280;35210;41.606;-87.602;2023-02-28T12:49:15;99020.59;;;7.15;81.90
49342;BME280;35210;41.606;-87.602;2023-02-28T12:51:46;99015.16;;;7.18;81.84
49342;BME280;35210;41.606;-87.602;2023-02-28T12:54:21;99022.91;;;7.20;81.88
49342;BME280;35210;41.606;-87.602;2023-02-28T12:57:02;99048.63;;;7.28;81.95
49342;BME280;35210;41.606;-87.602;2023-02-28T12:59:39;99047.06;;;7.38;81.31
49342;BME280;35210;41.606;-87.602;2023-02-28T13:08:55;99075.00;;;7.39;80.90
49342;BME280;35210;41.606;-87.602;2023-02-28T13:11:30;99072.38;;;7.39;80.52
49342;BME280;35210;41.606;-87.602;2023-02-28T13:14:03;99076.91;;;7.37;81.11
49342;BME280;35210;41.606;-87.602;2023-02-28T13:19:42;99084.22;;;7.44;81.28
49342;BME280;35210;41.606;-87.602;2023-02-28T13:22:18;99084.84;;;7.48;81.01
49342;BME280;35210;41.606;-87.602;2023-02-28T13:24:48;99088.41;;;7.47;80.25
49342;BME280;35210;41.606;-87.602;2023-02-28T13:27:35;99095.75;;;7.54;79.75
49342;BME280;35210;41.606;-87.602;2023-02-28T13:33:26;99094.28;;;7.50;79.52
49342;BME280;35210;41.606;-87.602;2023-02-28T13:36:23;99095.97;;;7.51;79.55
49342;BME280;35210;41.606;-87.602;2023-02-28T13:38:53;99101.00;;;7.54;79.13